sensor_id;sensor_type;location;lat;lon;timestamp;pressure;altitude;pressure_sealevel;temperature;humidity
17362;BME280;8798;51.938;4.348;2024-03-22T00:00:13;102208.03;;;12.69;75.90
17362;BME280;8798;51.938;4.348;2024-03-22T00:02:46;102206.47;;;12.66;75.84
17362;BME280;8798;51.938;4.348;2024-03-22T00:05:13;102193.09;;;12.65;75.44
17362;BME280;8798;51.938;4.348;2024-03-22T00:07:39;102193.94;;;12.65;75.72
17362;BME280;8798;51.938;4.348;2024-03-22T00:10:12;102170.94;;;12.61;75.77
17362;BME280;8798;51.938;4.348;2024-03-22T00:12:40;102157.88;;;12.57;75.99
17362;BME280;8798;51.938;4.348;2024-03-22T00:15:07;102150.91;;;12.54;76.06
17362;BME280;8798;51.938;4.348;2024-03-22T00:17:48;102121.66;;;12.50;75.97
17362;BME280;8798;51.938;4.348;2024-03-22T00:20:27;102090.81;;;12.42;75.62
17362;BME280;8798;51.938;4.348;2024-03-22T00:23:00;102073.47;;;12.35;76.09
17362;BME280;8798;51.938;4.348;2024-03-22T00:25:26;102047.75;;;12.31;76.13
17362;BME280;8798;51.938;4.348;2024-03-22T00:27:55;102033.84;;;12.26;76.21
17362;BME280;8798;51.938;4.348;2024-03-22T00:30:27;102015.13;;;12.24;75.90
17362;BME280;8798;51.938;4.348;2024-03-22T00:32:54;102019.81;;;12.22;76.51
17362;BME280;8798;51.938;4.348;2024-03-22T00:35:20;102005.72;;;12.19;76.26
17362;BME280;8798;51.938;4.348;2024-03-22T00:37:55;101981.03;;;12.14;76.17
17362;BME280;8798;51.938;4.348;2024-03-22T00:40:20;101978.63;;;12.11;76.05
17362;BME280;8798;51.938;4.348;2024-03-22T00:42:47;101972.50;;;12.09;76.96
17362;BME280;8798;51.938;4.348;2024-03-22T00:45:21;101959.44;;;12.04;76.24
17362;BME280;8798;51.938;4.348;2024-03-22T00:47:48;101941.84;;;12.00;76.39
17362;BME280;8798;51.938;4.348;2024-03-22T00:50:14;101922.41;;;11.96;76.50
17362;BME280;8798;51.938;4.348;2024-03-22T00:52:50;101904.94;;;11.91;76.98
17362;BME280;8798;51.938;4.348;2024-03-22T00:55:15;101910.34;;;11.91;76.15
17362;BME280;8798;51.938;4.348;2024-03-22T00:57:42;101921.00;;;11.92;76.94
17362;BME280;8798;51.938;4.348;2024-03-22T01:00:16;101914.88;;;11.90;76.52
17362;BME280;8798;51.938;4.348;2024-03-22T01:02:44;101902.38;;;11.89;76.73
17362;BME280;8798;51.938;4.348;2024-03-22T01:05:10;101907.78;;;11.89;76.69
17362;BME280;8798;51.938;4.348;2024-03-22T01:07:44;101894.72;;;11.84;77.01
17362;BME280;8798;51.938;4.348;2024-03-22T01:10:10;101884.06;;;11.83;76.86
17362;BME280;8798;51.938;4.348;2024-03-22T01:12:37;101886.03;;;11.81;76.51
17362;BME280;8798;51.938;4.348;2024-03-22T01:15:11;101894.94;;;11.81;77.12
17362;BME280;8798;51.938;4.348;2024-03-22T01:17:46;101894.09;;;11.81;76.58
17362;BME280;8798;51.938;4.348;2024-03-22T01:20:26;101895.09;;;11.80;76.67
17362;BME280;8798;51.938;4.348;2024-03-22T01:22:52;101899.63;;;11.79;76.88
17362;BME280;8798;51.938;4.348;2024-03-22T01:25:18;101897.78;;;11.80;77.28
17362;BME280;8798;51.938;4.348;2024-03-22T01:27:52;101916.38;;;11.83;77.39
17362;BME280;8798;51.938;4.348;2024-03-22T01:30:18;101911.81;;;11.83;77.52
17362;BME280;8798;51.938;4.348;2024-03-22T01:32:46;101910.13;;;11.82;77.19
17362;BME280;8798;51.938;4.348;2024-03-22T01:35:19;101916.38;;;11.83;77.33
17362;BME280;8798;51.938;4.348;2024-03-22T01:37:46;101916.38;;;11.83;77.22
17362;BME280;8798;51.938;4.348;2024-03-22T01:40:13;101906.84;;;11.79;77.66
17362;BME280;8798;51.938;4.348;2024-03-22T01:42:46;101902.44;;;11.78;77.18
17362;BME280;8798;51.938;4.348;2024-03-22T01:45:13;101899.03;;;11.76;77.52
17362;BME280;8798;51.938;4.348;2024-03-22T01:47:41;101879.75;;;11.71;77.71
17362;BME280;8798;51.938;4.348;2024-03-22T01:50:16;101871.78;;;11.69;77.07
17362;BME280;8798;51.938;4.348;2024-03-22T01:52:43;101885.97;;;11.71;77.52
17362;BME280;8798;51.938;4.348;2024-03-22T01:55:09;101888.53;;;11.73;77.75
17362;BME280;8798;51.938;4.348;2024-03-22T01:57:43;101898.47;;;11.72;77.54
17362;BME280;8798;51.938;4.348;2024-03-22T02:00:10;101905.41;;;11.75;77.81
17362;BME280;8798;51.938;4.348;2024-03-22T02:02:37;101903.69;;;11.74;77.56
17362;BME280;8798;51.938;4.348;2024-03-22T02:05:14;101895.78;;;11.72;77.70
17362;BME280;8798;51.938;4.348;2024-03-22T02:07:43;101892.34;;;11.70;77.97
17362;BME280;8798;51.938;4.348;2024-03-22T02:10:10;101895.16;;;11.69;77.32
17362;BME280;8798;51.938;4.348;2024-03-22T02:12:44;101896.91;;;11.70;77.50
17362;BME280;8798;51.938;4.348;2024-03-22T02:15:11;101901.28;;;11.71;77.57
17362;BME280;8798;51.938;4.348;2024-03-22T02:17:37;101901.28;;;11.71;77.97
17362;BME280;8798;51.938;4.348;2024-03-22T02:20:17;101903.97;;;11.71;77.98
17362;BME280;8798;51.938;4.348;2024-03-22T02:22:44;101901.28;;;11.71;77.62
17362;BME280;8798;51.938;4.348;2024-03-22T02:25:19;101904.97;;;11.70;78.19
17362;BME280;8798;51.938;4.348;2024-03-22T02:27:45;101915.59;;;11.71;78.30
17362;BME280;8798;51.938;4.348;2024-03-22T02:30:16;101914.72;;;11.71;78.31
17362;BME280;8798;51.938;4.348;2024-03-22T02:32:48;101913.72;;;11.72;78.45
17362;BME280;8798;51.938;4.348;2024-03-22T02:35:15;101919.13;;;11.72;77.92
17362;BME280;8798;51.938;4.348;2024-03-22T02:37:41;101920.84;;;11.73;77.85
17362;BME280;8798;51.938;4.348;2024-03-22T02:40:15;101916.44;;;11.72;77.92
17362;BME280;8798;51.938;4.348;2024-03-22T02:42:42;101916.44;;;11.72;78.03
17362;BME280;8798;51.938;4.348;2024-03-22T02:45:09;101921.81;;;11.72;77.87
17362;BME280;8798;51.938;4.348;2024-03-22T02:47:42;101909.47;;;11.69;77.98
17362;BME280;8798;51.938;4.348;2024-03-22T02:50:09;101915.72;;;11.70;78.49
17362;BME280;8798;51.938;4.348;2024-03-22T02:52:35;101907.78;;;11.68;78.36
17362;BME280;8798;51.938;4.348;2024-03-22T02:55:09;101905.38;;;11.65;78.49
17362;BME280;8798;51.938;4.348;2024-03-22T02:57:35;101895.56;;;11.64;78.23
17362;BME280;8798;51.938;4.348;2024-03-22T03:00:04;101886.75;;;11.62;78.00
17362;BME280;8798;51.938;4.348;2024-03-22T03:02:37;101883.38;;;11.60;77.91
17362;BME280;8798;51.938;4.348;2024-03-22T03:05:04;101877.28;;;11.58;78.22
17362;BME280;8798;51.938;4.348;2024-03-22T03:07:31;101872.84;;;11.57;78.27
17362;BME280;8798;51.938;4.348;2024-03-22T03:10:08;101878.13;;;11.58;78.30
17362;BME280;8798;51.938;4.348;2024-03-22T03:12:34;101875.53;;;11.57;78.65
17362;BME280;8798;51.938;4.348;2024-03-22T03:15:17;101870.31;;;11.55;78.63
17362;BME280;8798;51.938;4.348;2024-03-22T03:17:50;101866.63;;;11.56;78.22
17362;BME280;8798;51.938;4.348;2024-03-22T03:20:30;101868.47;;;11.56;78.12
17362;BME280;8798;51.938;4.348;2024-03-22T03:22:56;101860.53;;;11.54;78.74
17362;BME280;8798;51.938;4.348;2024-03-22T03:25:25;101865.78;;;11.56;78.53
17362;BME280;8798;51.938;4.348;2024-03-22T03:27:58;101865.91;;;11.54;78.56
17362;BME280;8798;51.938;4.348;2024-03-22T03:30:26;101865.91;;;11.54;78.07
17362;BME280;8798;51.938;4.348;2024-03-22T03:32:52;101866.91;;;11.53;78.30
17362;BME280;8798;51.938;4.348;2024-03-22T03:35:26;101860.66;;;11.53;78.53
17362;BME280;8798;51.938;4.348;2024-03-22T03:37:52;101865.22;;;11.52;78.43
17362;BME280;8798;51.938;4.348;2024-03-22T03:40:19;101869.59;;;11.53;78.62
17362;BME280;8798;51.938;4.348;2024-03-22T03:42:52;101859.81;;;11.52;78.53
17362;BME280;8798;51.938;4.348;2024-03-22T03:45:19;101863.47;;;11.51;78.81
17362;BME280;8798;51.938;4.348;2024-03-22T03:47:46;101853.72;;;11.50;78.74
17362;BME280;8798;51.938;4.348;2024-03-22T03:50:20;101851.03;;;11.50;78.85
17362;BME280;8798;51.938;4.348;2024-03-22T03:52:46;101855.53;;;11.50;78.73
17362;BME280;8798;51.938;4.348;2024-03-22T03:55:13;101849.31;;;11.49;78.67
17362;BME280;8798;51.938;4.348;2024-03-22T03:57:46;101852.00;;;11.49;78.74
17362;BME280;8798;51.938;4.348;2024-03-22T04:00:13;101848.47;;;11.49;79.07
17362;BME280;8798;51.938;4.348;2024-03-22T04:02:40;101852.00;;;11.49;79.00
17362;BME280;8798;51.938;4.348;2024-03-22T04:05:14;101862.63;;;11.51;78.68
17362;BME280;8798;51.938;4.348;2024-03-22T04:07:40;101863.38;;;11.53;78.69
17362;BME280;8798;51.938;4.348;2024-03-22T04:10:08;101884.63;;;11.56;79.07
17362;BME280;8798;51.938;4.348;2024-03-22T04:12:41;101889.00;;;11.57;79.09
17362;BME280;8798;51.938;4.348;2024-03-22T04:15:08;101881.94;;;11.56;78.66
17362;BME280;8798;51.938;4.348;2024-03-22T04:17:34;101886.31;;;11.57;79.02
17362;BME280;8798;51.938;4.348;2024-03-22T04:20:16;101868.59;;;11.54;78.72
17362;BME280;8798;51.938;4.348;2024-03-22T04:22:42;101874.84;;;11.55;78.57
17362;BME280;8798;51.938;4.348;2024-03-22T04:25:16;101883.78;;;11.55;78.72
17362;BME280;8798;51.938;4.348;2024-03-22T04:27:42;101878.25;;;11.57;79.44
17362;BME280;8798;51.938;4.348;2024-03-22T04:30:10;101887.31;;;11.56;79.41
17362;BME280;8798;51.938;4.348;2024-03-22T04:32:45;101883.78;;;11.55;78.97
17362;BME280;8798;51.938;4.348;2024-03-22T04:35:12;101873.00;;;11.55;79.15
17362;BME280;8798;51.938;4.348;2024-03-22T04:37:40;101877.53;;;11.55;78.69
17362;BME280;8798;51.938;4.348;2024-03-22T04:40:14;101879.34;;;11.54;79.14
17362;BME280;8798;51.938;4.348;2024-03-22T04:42:41;101873.84;;;11.56;79.19
17362;BME280;8798;51.938;4.348;2024-03-22T04:45:07;101877.53;;;11.55;79.08
17362;BME280;8798;51.938;4.348;2024-03-22T04:47:41;101866.06;;;11.53;79.11
17362;BME280;8798;51.938;4.348;2024-03-22T04:50:08;101865.22;;;11.52;79.41
17362;BME280;8798;51.938;4.348;2024-03-22T04:52:35;101862.63;;;11.51;78.90
17362;BME280;8798;51.938;4.348;2024-03-22T04:55:09;101861.78;;;11.50;78.92
17362;BME280;8798;51.938;4.348;2024-03-22T04:57:36;101851.16;;;11.49;79.38
17362;BME280;8798;51.938;4.348;2024-03-22T05:00:02;101855.53;;;11.50;78.86
17362;BME280;8798;51.938;4.348;2024-03-22T05:02:39;101860.91;;;11.50;79.15
17362;BME280;8798;51.938;4.348;2024-03-22T05:05:06;101859.09;;;11.50;79.54
17362;BME280;8798;51.938;4.348;2024-03-22T05:07:34;101859.09;;;11.50;79.22
17362;BME280;8798;51.938;4.348;2024-03-22T05:10:06;101871.44;;;11.53;79.35
17362;BME280;8798;51.938;4.348;2024-03-22T05:12:35;101862.63;;;11.51;79.52
17362;BME280;8798;51.938;4.348;2024-03-22T05:15:02;101849.47;;;11.48;79.78
17362;BME280;8798;51.938;4.348;2024-03-22T05:17:36;101849.56;;;11.46;79.69
17362;BME280;8798;51.938;4.348;2024-03-22T05:20:16;101851.28;;;11.47;79.45
17362;BME280;8798;51.938;4.348;2024-03-22T05:22:49;101853.00;;;11.48;79.72
17362;BME280;8798;51.938;4.348;2024-03-22T05:25:16;101853.00;;;11.48;79.53
17362;BME280;8798;51.938;4.348;2024-03-22T05:27:44;101842.34;;;11.47;79.11
17362;BME280;8798;51.938;4.348;2024-03-22T05:30:12;101831.00;;;11.43;79.06
17362;BME280;8798;51.938;4.348;2024-03-22T05:32:38;101836.41;;;11.43;79.15
17362;BME280;8798;51.938;4.348;2024-03-22T05:35:06;101826.59;;;11.42;79.53
17362;BME280;8798;51.938;4.348;2024-03-22T05:37:33;101823.91;;;11.42;79.47
17362;BME280;8798;51.938;4.348;2024-03-22T05:40:00;101827.59;;;11.41;79.50
17362;BME280;8798;51.938;4.348;2024-03-22T05:42:26;101824.91;;;11.41;79.24
17362;BME280;8798;51.938;4.348;2024-03-22T05:44:56;101824.06;;;11.40;79.37
17362;BME280;8798;51.938;4.348;2024-03-22T05:47:22;101822.34;;;11.39;79.28
17362;BME280;8798;51.938;4.348;2024-03-22T05:49:49;101820.53;;;11.40;79.55
17362;BME280;8798;51.938;4.348;2024-03-22T05:52:15;101810.00;;;11.37;79.27
17362;BME280;8798;51.938;4.348;2024-03-22T05:54:41;101812.69;;;11.37;79.63
17362;BME280;8798;51.938;4.348;2024-03-22T05:57:07;101809.28;;;11.35;79.80
17362;BME280;8798;51.938;4.348;2024-03-22T05:59:35;101801.09;;;11.36;79.48
17362;BME280;8798;51.938;4.348;2024-03-22T06:02:02;101816.28;;;11.37;79.19
17362;BME280;8798;51.938;4.348;2024-03-22T06:04:29;101806.47;;;11.36;79.76
17362;BME280;8798;51.938;4.348;2024-03-22T06:06:55;101807.31;;;11.37;79.08
17362;BME280;8798;51.938;4.348;2024-03-22T06:09:25;101826.75;;;11.40;79.35
17362;BME280;8798;51.938;4.348;2024-03-22T06:12:00;101824.91;;;11.41;79.28
17362;BME280;8798;51.938;4.348;2024-03-22T06:14:27;101830.16;;;11.43;79.50
17362;BME280;8798;51.938;4.348;2024-03-22T06:16:53;101843.34;;;11.46;79.76
17362;BME280;8798;51.938;4.348;2024-03-22T06:19:22;101863.59;;;11.50;79.09
17362;BME280;8798;51.938;4.348;2024-03-22T06:21:49;101879.50;;;11.53;79.57
17362;BME280;8798;51.938;4.348;2024-03-22T06:24:16;101886.47;;;11.55;79.90
17362;BME280;8798;51.938;4.348;2024-03-22T06:26:48;101892.56;;;11.57;79.44
17362;BME280;8798;51.938;4.348;2024-03-22T06:29:16;101899.53;;;11.60;79.49
17362;BME280;8798;51.938;4.348;2024-03-22T06:31:42;101910.03;;;11.63;80.09
17362;BME280;8798;51.938;4.348;2024-03-22T06:34:09;101916.25;;;11.63;79.81
17362;BME280;8798;51.938;4.348;2024-03-22T06:36:36;101910.88;;;11.63;79.98
17362;BME280;8798;51.938;4.348;2024-03-22T06:39:03;101928.47;;;11.68;79.53
17362;BME280;8798;51.938;4.348;2024-03-22T06:41:32;101930.16;;;11.69;79.29
17362;BME280;8798;51.938;4.348;2024-03-22T06:43:59;101929.31;;;11.68;79.46
17362;BME280;8798;51.938;4.348;2024-03-22T06:46:25;101937.13;;;11.71;79.32
17362;BME280;8798;51.938;4.348;2024-03-22T06:48:58;101935.28;;;11.72;79.85
17362;BME280;8798;51.938;4.348;2024-03-22T06:51:24;101943.22;;;11.73;80.10
17362;BME280;8798;51.938;4.348;2024-03-22T06:53:55;101944.91;;;11.74;80.02
17362;BME280;8798;51.938;4.348;2024-03-22T06:56:21;101951.88;;;11.77;80.03
17362;BME280;8798;51.938;4.348;2024-03-22T06:58:48;101940.41;;;11.75;79.86
17362;BME280;8798;51.938;4.348;2024-03-22T07:01:14;101964.38;;;11.78;79.35
17362;BME280;8798;51.938;4.348;2024-03-22T07:03:42;101957.13;;;11.78;79.73
17362;BME280;8798;51.938;4.348;2024-03-22T07:06:11;101960.56;;;11.80;79.69
17362;BME280;8798;51.938;4.348;2024-03-22T07:08:38;101967.50;;;11.83;79.54
17362;BME280;8798;51.938;4.348;2024-03-22T07:11:06;101979.00;;;11.85;79.30
17362;BME280;8798;51.938;4.348;2024-03-22T07:13:34;101971.91;;;11.84;79.99
17362;BME280;8798;51.938;4.348;2024-03-22T07:16:00;101967.41;;;11.84;79.46
17362;BME280;8798;51.938;4.348;2024-03-22T07:18:27;101976.31;;;11.85;80.09
17362;BME280;8798;51.938;4.348;2024-03-22T07:20:54;101973.63;;;11.85;79.91
17362;BME280;8798;51.938;4.348;2024-03-22T07:23:21;101970.94;;;11.85;79.98
17362;BME280;8798;51.938;4.348;2024-03-22T07:25:47;101975.22;;;11.88;79.58
17362;BME280;8798;51.938;4.348;2024-03-22T07:28:15;101973.50;;;11.87;79.34
17362;BME280;8798;51.938;4.348;2024-03-22T07:30:41;101969.94;;;11.86;79.95
17362;BME280;8798;51.938;4.348;2024-03-22T07:33:10;101961.84;;;11.86;79.43
17362;BME280;8798;51.938;4.348;2024-03-22T07:35:38;101959.16;;;11.86;80.02
17362;BME280;8798;51.938;4.348;2024-03-22T07:38:05;101964.56;;;11.86;79.75
17362;BME280;8798;51.938;4.348;2024-03-22T07:40:32;101956.38;;;11.88;79.63
17362;BME280;8798;51.938;4.348;2024-03-22T07:42:59;101962.63;;;11.88;79.49
17362;BME280;8798;51.938;4.348;2024-03-22T07:45:26;101966.03;;;11.90;79.53
17362;BME280;8798;51.938;4.348;2024-03-22T07:47:56;101979.22;;;11.93;79.40
17362;BME280;8798;51.938;4.348;2024-03-22T07:50:22;102003.91;;;11.98;79.44
17362;BME280;8798;51.938;4.348;2024-03-22T07:52:51;102002.06;;;11.99;79.75
17362;BME280;8798;51.938;4.348;2024-03-22T07:55:17;101994.16;;;11.97;79.38
17362;BME280;8798;51.938;4.348;2024-03-22T07:57:45;101969.31;;;11.94;79.87
17362;BME280;8798;51.938;4.348;2024-03-22T08:00:12;101962.22;;;11.93;79.66
17362;BME280;8798;51.938;4.348;2024-03-22T08:02:41;101957.81;;;11.92;79.27
17362;BME280;8798;51.938;4.348;2024-03-22T08:05:07;101956.97;;;11.91;79.73
17362;BME280;8798;51.938;4.348;2024-03-22T08:07:34;101952.41;;;11.92;80.08
17362;BME280;8798;51.938;4.348;2024-03-22T08:10:01;101957.69;;;11.93;79.43
17362;BME280;8798;51.938;4.348;2024-03-22T08:12:30;101939.97;;;11.91;79.84
17362;BME280;8798;51.938;4.348;2024-03-22T08:14:56;101945.22;;;11.92;79.68
17362;BME280;8798;51.938;4.348;2024-03-22T08:17:22;101927.63;;;11.88;79.62
17362;BME280;8798;51.938;4.348;2024-03-22T08:19:50;101916.25;;;11.84;79.09
17362;BME280;8798;51.938;4.348;2024-03-22T08:22:17;101909.28;;;11.82;79.34
17362;BME280;8798;51.938;4.348;2024-03-22T08:24:43;101895.09;;;11.80;79.64
17362;BME280;8798;51.938;4.348;2024-03-22T08:27:10;101876.50;;;11.77;79.33
17362;BME280;8798;51.938;4.348;2024-03-22T08:29:36;101881.03;;;11.76;80.11
17362;BME280;8798;51.938;4.348;2024-03-22T08:32:03;101880.91;;;11.78;79.54
17362;BME280;8798;51.938;4.348;2024-03-22T08:34:30;101887.16;;;11.78;79.38
17362;BME280;8798;51.938;4.348;2024-03-22T08:36:59;101892.41;;;11.80;79.50
17362;BME280;8798;51.938;4.348;2024-03-22T08:39:25;101880.06;;;11.77;79.84
17362;BME280;8798;51.938;4.348;2024-03-22T08:41:52;101863.31;;;11.74;79.13
17362;BME280;8798;51.938;4.348;2024-03-22T08:44:18;101839.50;;;11.69;79.39
17362;BME280;8798;51.938;4.348;2024-03-22T08:46:45;101826.31;;;11.66;79.35
17362;BME280;8798;51.938;4.348;2024-03-22T08:49:11;101822.78;;;11.66;79.32
17362;BME280;8798;51.938;4.348;2024-03-22T08:51:39;101814.97;;;11.62;79.37
17362;BME280;8798;51.938;4.348;2024-03-22T08:54:06;101813.25;;;11.61;79.47
17362;BME280;8798;51.938;4.348;2024-03-22T08:56:33;101809.72;;;11.61;79.32
17362;BME280;8798;51.938;4.348;2024-03-22T08:58:59;101817.66;;;11.62;80.06
17362;BME280;8798;51.938;4.348;2024-03-22T09:01:26;101826.19;;;11.68;80.10
17362;BME280;8798;51.938;4.348;2024-03-22T09:03:52;101845.75;;;11.70;79.65
17362;BME280;8798;51.938;4.348;2024-03-22T09:06:19;101845.75;;;11.70;80.07
17362;BME280;8798;51.938;4.348;2024-03-22T09:08:46;101849.13;;;11.72;80.30
17362;BME280;8798;51.938;4.348;2024-03-22T09:11:14;101850.00;;;11.72;79.61
17362;BME280;8798;51.938;4.348;2024-03-22T09:13:40;101862.34;;;11.75;79.56
17362;BME280;8798;51.938;4.348;2024-03-22T09:16:07;101875.53;;;11.78;80.31
17362;BME280;8798;51.938;4.348;2024-03-22T09:18:33;101878.09;;;11.79;79.76
17362;BME280;8798;51.938;4.348;2024-03-22T09:21:00;101886.03;;;11.81;80.32
17362;BME280;8798;51.938;4.348;2024-03-22T09:23:27;101899.94;;;11.86;79.97
17362;BME280;8798;51.938;4.348;2024-03-22T09:25:53;101931.88;;;11.91;80.15
17362;BME280;8798;51.938;4.348;2024-03-22T09:28:21;101940.56;;;11.94;80.49
17362;BME280;8798;51.938;4.348;2024-03-22T09:30:47;101939.56;;;11.95;80.12
17362;BME280;8798;51.938;4.348;2024-03-22T09:33:14;101951.91;;;11.98;79.99
17362;BME280;8798;51.938;4.348;2024-03-22T09:35:40;101942.97;;;11.97;80.39
17362;BME280;8798;51.938;4.348;2024-03-22T09:38:07;101944.66;;;11.98;79.90
17362;BME280;8798;51.938;4.348;2024-03-22T09:40:34;101965.09;;;12.01;80.31
17362;BME280;8798;51.938;4.348;2024-03-22T09:43:02;101960.56;;;12.01;79.79
17362;BME280;8798;51.938;4.348;2024-03-22T09:45:31;101961.28;;;12.03;79.99
17362;BME280;8798;51.938;4.348;2024-03-22T09:47:58;101970.94;;;12.06;80.30
17362;BME280;8798;51.938;4.348;2024-03-22T09:50:25;101966.38;;;12.07;80.64
17362;BME280;8798;51.938;4.348;2024-03-22T09:52:53;101959.44;;;12.04;80.15
17362;BME280;8798;51.938;4.348;2024-03-22T09:55:22;101954.19;;;12.02;80.41
17362;BME280;8798;51.938;4.348;2024-03-22T09:57:49;101930.25;;;11.99;79.98
17362;BME280;8798;51.938;4.348;2024-03-22T10:00:18;101913.63;;;11.94;79.93
17362;BME280;8798;51.938;4.348;2024-03-22T10:02:49;101902.13;;;11.92;80.49
17362;BME280;8798;51.938;4.348;2024-03-22T10:05:15;101901.13;;;11.93;80.29
17362;BME280;8798;51.938;4.348;2024-03-22T10:07:43;101898.56;;;11.92;80.61
17362;BME280;8798;51.938;4.348;2024-03-22T10:10:09;101892.34;;;11.91;80.01
17362;BME280;8798;51.938;4.348;2024-03-22T10:12:36;101889.66;;;11.91;80.33
17362;BME280;8798;51.938;4.348;2024-03-22T10:15:04;101892.34;;;11.91;80.53
17362;BME280;8798;51.938;4.348;2024-03-22T10:17:31;101869.22;;;11.89;80.57
17362;BME280;8798;51.938;4.348;2024-03-22T10:19:58;101869.38;;;11.87;80.44
17362;BME280;8798;51.938;4.348;2024-03-22T10:22:25;101870.22;;;11.88;80.66
17362;BME280;8798;51.938;4.348;2024-03-22T10:24:51;101876.34;;;11.90;80.73
17362;BME280;8798;51.938;4.348;2024-03-22T10:27:19;101879.88;;;11.90;80.38
17362;BME280;8798;51.938;4.348;2024-03-22T10:29:46;101872.75;;;11.89;80.67
17362;BME280;8798;51.938;4.348;2024-03-22T10:32:16;101879.88;;;11.90;80.80
17362;BME280;8798;51.938;4.348;2024-03-22T10:34:42;101873.66;;;11.90;80.53
17362;BME280;8798;51.938;4.348;2024-03-22T10:37:14;101869.38;;;11.87;81.28
17362;BME280;8798;51.938;4.348;2024-03-22T10:39:42;101856.84;;;11.86;80.68
17362;BME280;8798;51.938;4.348;2024-03-22T10:42:09;101853.44;;;11.84;81.18
17362;BME280;8798;51.938;4.348;2024-03-22T10:44:35;101850.63;;;11.86;81.09
17362;BME280;8798;51.938;4.348;2024-03-22T10:47:04;101855.16;;;11.85;80.78
17362;BME280;8798;51.938;4.348;2024-03-22T10:49:33;101854.16;;;11.86;81.32
17362;BME280;8798;51.938;4.348;2024-03-22T10:52:05;101847.09;;;11.85;81.25
17362;BME280;8798;51.938;4.348;2024-03-22T10:54:39;101846.25;;;11.84;81.09
17362;BME280;8798;51.938;4.348;2024-03-22T10:57:11;101845.38;;;11.84;81.20
17362;BME280;8798;51.938;4.348;2024-03-22T10:59:40;101840.97;;;11.83;81.40
17362;BME280;8798;51.938;4.348;2024-03-22T11:02:10;101854.31;;;11.84;81.49
17362;BME280;8798;51.938;4.348;2024-03-22T11:04:37;101869.09;;;11.90;81.88
17362;BME280;8798;51.938;4.348;2024-03-22T11:07:04;101892.09;;;11.94;81.44
17362;BME280;8798;51.938;4.348;2024-03-22T11:09:30;101890.09;;;11.96;81.19
17362;BME280;8798;51.938;4.348;2024-03-22T11:11:59;101912.09;;;12.01;81.42
17362;BME280;8798;51.938;4.348;2024-03-22T11:14:26;101931.53;;;12.05;81.34
17362;BME280;8798;51.938;4.348;2024-03-22T11:16:54;101948.16;;;12.10;81.92
17362;BME280;8798;51.938;4.348;2024-03-22T11:19:19;101985.91;;;12.20;81.73
17362;BME280;8798;51.938;4.348;2024-03-22T11:21:46;102007.06;;;12.24;81.73
17362;BME280;8798;51.938;4.348;2024-03-22T11:24:13;102035.19;;;12.32;81.98
17362;BME280;8798;51.938;4.348;2024-03-22T11:26:40;102075.38;;;12.44;82.27
17362;BME280;8798;51.938;4.348;2024-03-22T11:29:07;102136.31;;;12.57;82.61
17362;BME280;8798;51.938;4.348;2024-03-22T11:31:34;102178.50;;;12.67;82.72
17362;BME280;8798;51.938;4.348;2024-03-22T11:34:00;102201.38;;;12.73;82.68
17362;BME280;8798;51.938;4.348;2024-03-22T11:36:27;102207.38;;;12.77;82.61
17362;BME280;8798;51.938;4.348;2024-03-22T11:38:53;102217.88;;;12.80;83.28
17362;BME280;8798;51.938;4.348;2024-03-22T11:41:23;102221.31;;;12.82;83.20
17362;BME280;8798;51.938;4.348;2024-03-22T11:43:50;102222.88;;;12.84;83.44
17362;BME280;8798;51.938;4.348;2024-03-22T11:46:20;102238.66;;;12.89;83.49
17362;BME280;8798;51.938;4.348;2024-03-22T11:48:51;102250.88;;;12.93;83.98
17362;BME280;8798;51.938;4.348;2024-03-22T11:51:18;102266.69;;;12.98;84.08
17362;BME280;8798;51.938;4.348;2024-03-22T11:53:49;102263.84;;;12.99;84.54
17362;BME280;8798;51.938;4.348;2024-03-22T11:56:18;102239.97;;;12.95;84.31
17362;BME280;8798;51.938;4.348;2024-03-22T11:58:45;102195.63;;;12.87;84.59
17362;BME280;8798;51.938;4.348;2024-03-22T12:01:13;102151.59;;;12.77;84.36
17362;BME280;8798;51.938;4.348;2024-03-22T12:03:40;102091.50;;;12.65;85.02
17362;BME280;8798;51.938;4.348;2024-03-22T12:06:10;102051.91;;;12.56;85.11
17362;BME280;8798;51.938;4.348;2024-03-22T12:08:36;102010.53;;;12.46;85.60
17362;BME280;8798;51.938;4.348;2024-03-22T12:11:07;101979.75;;;12.39;85.53
17362;BME280;8798;51.938;4.348;2024-03-22T12:13:33;101931.91;;;12.31;85.29
17362;BME280;8798;51.938;4.348;2024-03-22T12:16:00;101915.47;;;12.24;85.80
17362;BME280;8798;51.938;4.348;2024-03-22T12:18:28;101906.53;;;12.24;85.83
17362;BME280;8798;51.938;4.348;2024-03-22T12:20:57;101894.31;;;12.20;86.05
17362;BME280;8798;51.938;4.348;2024-03-22T12:23:24;101878.28;;;12.18;85.88
17362;BME280;8798;51.938;4.348;2024-03-22T12:25:51;101850.91;;;12.13;85.96
17362;BME280;8798;51.938;4.348;2024-03-22T12:28:18;101839.56;;;12.10;85.86
17362;BME280;8798;51.938;4.348;2024-03-22T12:30:44;101846.63;;;12.11;86.51
17362;BME280;8798;51.938;4.348;2024-03-22T12:33:11;101830.63;;;12.09;86.67
17362;BME280;8798;51.938;4.348;2024-03-22T12:35:39;101842.25;;;12.10;86.49
17362;BME280;8798;51.938;4.348;2024-03-22T12:38:08;101847.47;;;12.11;86.68
17362;BME280;8798;51.938;4.348;2024-03-22T12:40:36;101841.25;;;12.11;86.96
17362;BME280;8798;51.938;4.348;2024-03-22T12:43:03;101829.91;;;12.07;86.84
17362;BME280;8798;51.938;4.348;2024-03-22T12:45:30;101818.41;;;12.05;87.14
17362;BME280;8798;51.938;4.348;2024-03-22T12:47:58;101823.53;;;12.08;87.29
17362;BME280;8798;51.938;4.348;2024-03-22T12:50:26;101842.97;;;12.12;87.14
17362;BME280;8798;51.938;4.348;2024-03-22T12:52:53;101860.41;;;12.17;87.10
17362;BME280;8798;51.938;4.348;2024-03-22T12:55:21;101873.47;;;12.22;87.84
17362;BME280;8798;51.938;4.348;2024-03-22T12:57:48;101890.38;;;12.24;87.43
17362;BME280;8798;51.938;4.348;2024-03-22T13:00:14;101901.00;;;12.25;87.80
17362;BME280;8798;51.938;4.348;2024-03-22T13:02:44;101893.63;;;12.27;87.56
17362;BME280;8798;51.938;4.348;2024-03-22T13:05:10;101884.81;;;12.25;88.18